sensor_id;sensor_type;location;lat;lon;timestamp;pressure;altitude;pressure_sealevel;temperature;humidity
45793;BME280;31495;42.740;22.908;2023-03-23T00:00:25;93065.91;;;3.52;79.64
45793;BME280;31495;42.740;22.908;2023-03-23T00:01:26;93046.50;;;3.34;79.73
45793;BME280;31495;42.740;22.908;2023-03-23T00:02:30;93065.91;;;3.52;79.36
45793;BME280;31495;42.740;22.908;2023-03-23T00:03:34;93039.81;;;3.33;79.55
45793;BME280;31495;42.740;22.908;2023-03-23T00:04:34;93095.56;;;3.69;79.41
45793;BME280;31495;42.740;22.908;2023-03-23T00:05:34;92936.44;;;2.65;79.02
45793;BME280;31495;42.740;22.908;2023-03-23T00:06:36;93057.84;;;3.40;79.36
45793;BME280;31495;42.740;22.908;2023-03-23T00:07:36;93020.84;;;3.19;79.32
45793;BME280;31495;42.740;22.908;2023-03-23T00:08:39;93016.06;;;3.16;79.44
45793;BME280;31495;42.740;22.908;2023-03-23T00:09:44;93062.63;;;3.43;79.50
45793;BME280;31495;42.740;22.908;2023-03-23T00:10:44;93054.78;;;3.44;79.53
45793;BME280;31495;42.740;22.908;2023-03-23T00:11:43;93025.91;;;3.27;79.65
45793;BME280;31495;42.740;22.908;2023-03-23T00:12:43;93060.06;;;3.43;79.83
45793;BME280;31495;42.740;22.908;2023-03-23T00:13:46;93085.56;;;3.59;79.72
45793;BME280;31495;42.740;22.908;2023-03-23T00:14:45;93084.91;;;3.57;79.78
45793;BME280;31495;42.740;22.908;2023-03-23T00:15:46;93085.06;;;3.56;79.77
45793;BME280;31495;42.740;22.908;2023-03-23T00:16:48;93047.47;;;3.33;80.13
45793;BME280;31495;42.740;22.908;2023-03-23T00:17:49;93053.53;;;3.32;80.39
45793;BME280;31495;42.740;22.908;2023-03-23T00:18:50;93062.69;;;3.26;81.33
45793;BME280;31495;42.740;22.908;2023-03-23T00:19:53;93022.97;;;3.07;81.28
45793;BME280;31495;42.740;22.908;2023-03-23T00:20:55;93070.63;;;3.40;81.72
45793;BME280;31495;42.740;22.908;2023-03-23T00:21:54;93059.28;;;3.34;81.62
45793;BME280;31495;42.740;22.908;2023-03-23T00:22:54;93014.53;;;3.07;81.04
45793;BME280;31495;42.740;22.908;2023-03-23T00:24:19;93084.13;;;3.57;80.54
45793;BME280;31495;42.740;22.908;2023-03-23T00:25:18;93041.25;;;3.27;80.40
45793;BME280;31495;42.740;22.908;2023-03-23T00:26:17;93068.50;;;3.43;80.14
45793;BME280;31495;42.740;22.908;2023-03-23T00:27:17;93033.13;;;3.24;80.64
45793;BME280;31495;42.740;22.908;2023-03-23T00:28:17;93053.88;;;3.29;80.82
45793;BME280;31495;42.740;22.908;2023-03-23T00:29:19;93034.13;;;3.15;81.07
45793;BME280;31495;42.740;22.908;2023-03-23T00:30:20;93028.56;;;3.11;81.22
45793;BME280;31495;42.740;22.908;2023-03-23T00:31:21;93054.50;;;3.31;81.34
45793;BME280;31495;42.740;22.908;2023-03-23T00:32:22;93063.28;;;3.37;81.45
45793;BME280;31495;42.740;22.908;2023-03-23T00:33:28;93032.84;;;3.19;81.32
45793;BME280;31495;42.740;22.908;2023-03-23T00:34:27;93031.22;;;3.18;81.42
45793;BME280;31495;42.740;22.908;2023-03-23T00:35:31;93032.53;;;3.13;81.15
45793;BME280;31495;42.740;22.908;2023-03-23T00:36:32;93054.50;;;3.31;80.89
45793;BME280;31495;42.740;22.908;2023-03-23T00:37:34;93054.66;;;3.29;80.91
45793;BME280;31495;42.740;22.908;2023-03-23T00:38:35;93070.44;;;3.41;80.91
45793;BME280;31495;42.740;22.908;2023-03-23T00:39:35;93077.44;;;3.47;80.63
45793;BME280;31495;42.740;22.908;2023-03-23T00:40:36;93074.09;;;3.47;80.33
45793;BME280;31495;42.740;22.908;2023-03-23T00:41:35;93066.75;;;3.44;80.12
45793;BME280;31495;42.740;22.908;2023-03-23T00:42:35;93041.13;;;3.21;80.40
45793;BME280;31495;42.740;22.908;2023-03-23T00:43:37;93066.78;;;3.36;80.15
45793;BME280;31495;42.740;22.908;2023-03-23T00:44:36;93030.78;;;3.14;80.20
45793;BME280;31495;42.740;22.908;2023-03-23T00:45:35;93045.78;;;3.17;80.25
45793;BME280;31495;42.740;22.908;2023-03-23T00:46:35;93060.75;;;3.28;80.08
45793;BME280;31495;42.740;22.908;2023-03-23T00:47:44;93034.00;;;3.08;80.31
45793;BME280;31495;42.740;22.908;2023-03-23T00:48:46;93063.47;;;3.27;80.13
45793;BME280;31495;42.740;22.908;2023-03-23T00:49:45;93024.59;;;3.08;79.88
45793;BME280;31495;42.740;22.908;2023-03-23T00:50:45;93078.94;;;3.34;79.95
45793;BME280;31495;42.740;22.908;2023-03-23T00:51:45;93062.25;;;3.15;79.88
45793;BME280;31495;42.740;22.908;2023-03-23T00:52:45;93043.63;;;2.98;79.99
45793;BME280;31495;42.740;22.908;2023-03-23T00:53:46;93065.31;;;3.10;79.76
45793;BME280;31495;42.740;22.908;2023-03-23T00:54:46;93067.22;;;3.08;79.92
45793;BME280;31495;42.740;22.908;2023-03-23T00:55:48;93067.91;;;3.02;80.66
45793;BME280;31495;42.740;22.908;2023-03-23T00:56:47;93040.19;;;2.74;80.47
45793;BME280;31495;42.740;22.908;2023-03-23T00:57:47;93077.16;;;3.03;80.43
45793;BME280;31495;42.740;22.908;2023-03-23T00:58:49;93075.41;;;2.95;80.60
45793;BME280;31495;42.740;22.908;2023-03-23T00:59:51;93059.16;;;2.88;80.68
45793;BME280;31495;42.740;22.908;2023-03-23T01:00:50;93054.19;;;2.86;80.53
45793;BME280;31495;42.740;22.908;2023-03-23T01:01:49;93064.72;;;2.91;80.43
45793;BME280;31495;42.740;22.908;2023-03-23T01:02:49;93092.16;;;3.06;80.34
45793;BME280;31495;42.740;22.908;2023-03-23T01:03:54;93044.94;;;2.85;80.34
45793;BME280;31495;42.740;22.908;2023-03-23T01:05:00;93079.69;;;3.11;80.26
45793;BME280;31495;42.740;22.908;2023-03-23T01:06:07;93079.22;;;3.07;80.36
45793;BME280;31495;42.740;22.908;2023-03-23T01:07:07;93073.66;;;3.04;80.38
45793;BME280;31495;42.740;22.908;2023-03-23T01:08:07;93071.72;;;3.06;80.32
45793;BME280;31495;42.740;22.908;2023-03-23T01:09:10;93066.75;;;3.04;80.34
45793;BME280;31495;42.740;22.908;2023-03-23T01:10:10;93080.31;;;3.13;80.25
45793;BME280;31495;42.740;22.908;2023-03-23T01:11:16;93075.06;;;3.06;80.35
45793;BME280;31495;42.740;22.908;2023-03-23T01:12:15;93067.91;;;3.02;80.57
45793;BME280;31495;42.740;22.908;2023-03-23T01:13:15;93085.56;;;3.11;80.51
45793;BME280;31495;42.740;22.908;2023-03-23T01:14:17;93079.84;;;3.09;80.56
45793;BME280;31495;42.740;22.908;2023-03-23T01:15:18;93035.84;;;2.83;80.50
45793;BME280;31495;42.740;22.908;2023-03-23T01:16:18;93070.09;;;3.05;80.13
45793;BME280;31495;42.740;22.908;2023-03-23T01:17:18;93049.09;;;2.86;79.73
45793;BME280;31495;42.740;22.908;2023-03-23T01:18:18;93054.66;;;2.90;79.70
45793;BME280;31495;42.740;22.908;2023-03-23T01:19:18;93052.59;;;2.85;79.60
45793;BME280;31495;42.740;22.908;2023-03-23T01:20:18;93048.94;;;2.88;79.50
45793;BME280;31495;42.740;22.908;2023-03-23T01:21:19;93052.59;;;2.85;79.37
45793;BME280;31495;42.740;22.908;2023-03-23T01:22:19;93079.72;;;3.03;79.44
45793;BME280;31495;42.740;22.908;2023-03-23T01:23:19;93074.63;;;2.94;79.43
45793;BME280;31495;42.740;22.908;2023-03-23T01:24:18;93057.38;;;2.88;79.71
45793;BME280;31495;42.740;22.908;2023-03-23T01:25:18;93045.13;;;2.84;79.72
45793;BME280;31495;42.740;22.908;2023-03-23T01:26:21;93069.81;;;3.00;80.13
45793;BME280;31495;42.740;22.908;2023-03-23T01:27:21;93065.84;;;2.97;80.36
45793;BME280;31495;42.740;22.908;2023-03-23T01:28:20;93064.84;;;3.06;79.91
45793;BME280;31495;42.740;22.908;2023-03-23T01:29:19;93067.91;;;3.02;80.17
45793;BME280;31495;42.740;22.908;2023-03-23T01:30:19;93040.31;;;2.89;80.53
45793;BME280;31495;42.740;22.908;2023-03-23T01:31:21;93057.19;;;2.98;80.83
45793;BME280;31495;42.740;22.908;2023-03-23T01:32:21;93055.31;;;2.92;80.46
45793;BME280;31495;42.740;22.908;2023-03-23T01:33:21;93071.41;;;3.01;80.43
45793;BME280;31495;42.740;22.908;2023-03-23T01:34:20;93053.84;;;2.98;80.40
45793;BME280;31495;42.740;22.908;2023-03-23T01:35:20;93053.06;;;2.97;80.29
45793;BME280;31495;42.740;22.908;2023-03-23T01:36:23;93057.69;;;3.02;80.12
45793;BME280;31495;42.740;22.908;2023-03-23T01:37:23;93056.06;;;3.01;79.88
45793;BME280;31495;42.740;22.908;2023-03-23T01:38:25;93049.84;;;2.95;79.87
45793;BME280;31495;42.740;22.908;2023-03-23T01:39:25;93049.53;;;2.98;79.91
45793;BME280;31495;42.740;22.908;2023-03-23T01:40:26;93045.84;;;3.01;79.67
45793;BME280;31495;42.740;22.908;2023-03-23T01:41:26;93074.53;;;3.19;80.25
45793;BME280;31495;42.740;22.908;2023-03-23T01:42:32;93075.69;;;3.17;81.12
45793;BME280;31495;42.740;22.908;2023-03-23T01:43:32;93059.72;;;3.06;81.39
45793;BME280;31495;42.740;22.908;2023-03-23T01:45:34;93051.47;;;2.96;82.10
45793;BME280;31495;42.740;22.908;2023-03-23T01:46:35;93055.88;;;3.10;82.02
45793;BME280;31495;42.740;22.908;2023-03-23T01:47:35;93049.31;;;3.08;81.79
45793;BME280;31495;42.740;22.908;2023-03-23T01:48:36;93040.91;;;2.99;82.23
45793;BME280;31495;42.740;22.908;2023-03-23T01:49:42;93075.97;;;3.22;81.91
45793;BME280;31495;42.740;22.908;2023-03-23T01:51:06;93064.00;;;3.14;82.07
45793;BME280;31495;42.740;22.908;2023-03-23T01:52:14;93062.09;;;3.08;82.10
45793;BME280;31495;42.740;22.908;2023-03-23T01:53:18;93053.50;;;3.09;81.98
45793;BME280;31495;42.740;22.908;2023-03-23T01:54:21;93016.69;;;2.79;82.13
45793;BME280;31495;42.740;22.908;2023-03-23T01:55:22;93069.63;;;3.09;82.24
45793;BME280;31495;42.740;22.908;2023-03-23T01:56:27;93070.25;;;3.11;82.21
45793;BME280;31495;42.740;22.908;2023-03-23T01:57:29;93033.09;;;2.92;82.41
45793;BME280;31495;42.740;22.908;2023-03-23T01:58:32;93052.22;;;3.05;82.65
45793;BME280;31495;42.740;22.908;2023-03-23T01:59:33;93074.38;;;3.21;82.21
45793;BME280;31495;42.740;22.908;2023-03-23T02:00:34;93051.06;;;3.16;81.96
45793;BME280;31495;42.740;22.908;2023-03-23T02:01:35;93040.72;;;3.09;81.92
45793;BME280;31495;42.740;22.908;2023-03-23T02:02:37;93023.16;;;3.06;81.82
45793;BME280;31495;42.740;22.908;2023-03-23T02:03:41;93069.72;;;3.24;81.88
45793;BME280;31495;42.740;22.908;2023-03-23T02:04:42;93028.59;;;3.03;81.92
45793;BME280;31495;42.740;22.908;2023-03-23T02:05:42;93041.00;;;3.14;81.54
45793;BME280;31495;42.740;22.908;2023-03-23T02:06:43;93048.34;;;3.17;81.37
45793;BME280;31495;42.740;22.908;2023-03-23T02:07:44;93046.28;;;3.12;81.57
45793;BME280;31495;42.740;22.908;2023-03-23T02:08:44;93057.38;;;3.28;81.10
45793;BME280;31495;42.740;22.908;2023-03-23T02:09:49;93006.75;;;2.92;80.96
45793;BME280;31495;42.740;22.908;2023-03-23T02:10:49;93043.72;;;3.12;81.14
45793;BME280;31495;42.740;22.908;2023-03-23T02:11:49;93070.53;;;3.25;81.21
45793;BME280;31495;42.740;22.908;2023-03-23T02:12:52;93063.22;;;3.13;81.56
45793;BME280;31495;42.740;22.908;2023-03-23T02:13:51;93050.97;;;3.01;81.69
45793;BME280;31495;42.740;22.908;2023-03-23T02:14:52;93034.50;;;2.95;81.66
45793;BME280;31495;42.740;22.908;2023-03-23T02:18:37;93068.97;;;3.16;81.83
45793;BME280;31495;42.740;22.908;2023-03-23T02:21:36;93052.06;;;2.98;82.09
45793;BME280;31495;42.740;22.908;2023-03-23T02:26:53;93065.84;;;2.97;82.44
45793;BME280;31495;42.740;22.908;2023-03-23T02:28:24;93085.59;;;3.03;82.81
45793;BME280;31495;42.740;22.908;2023-03-23T02:29:33;93079.09;;;3.01;83.12
45793;BME280;31495;42.740;22.908;2023-03-23T02:30:52;93084.34;;;2.99;82.91
45793;BME280;31495;42.740;22.908;2023-03-23T02:34:27;93081.00;;;2.99;82.66
45793;BME280;31495;42.740;22.908;2023-03-23T02:35:35;93077.97;;;2.95;82.54
45793;BME280;31495;42.740;22.908;2023-03-23T02:36:44;93067.16;;;2.76;82.41
45793;BME280;31495;42.740;22.908;2023-03-23T02:37:50;93057.78;;;2.61;82.92
45793;BME280;31495;42.740;22.908;2023-03-23T02:39:00;93061.59;;;2.65;83.41
45793;BME280;31495;42.740;22.908;2023-03-23T02:40:09;93070.06;;;2.65;83.40
45793;BME280;31495;42.740;22.908;2023-03-23T02:41:11;93075.16;;;2.65;83.47
45793;BME280;31495;42.740;22.908;2023-03-23T02:42:15;93052.19;;;2.57;83.09
45793;BME280;31495;42.740;22.908;2023-03-23T02:43:20;93039.91;;;2.52;83.29
45793;BME280;31495;42.740;22.908;2023-03-23T02:44:23;93036.56;;;2.52;83.27
45793;BME280;31495;42.740;22.908;2023-03-23T02:45:25;93073.56;;;2.72;83.24
45793;BME280;31495;42.740;22.908;2023-03-23T02:46:26;93066.22;;;2.69;83.43
45793;BME280;31495;42.740;22.908;2023-03-23T02:47:29;93069.72;;;2.76;83.57
45793;BME280;31495;42.740;22.908;2023-03-23T02:48:30;93056.97;;;2.68;83.56
45793;BME280;31495;42.740;22.908;2023-03-23T02:49:32;93091.72;;;2.94;83.53
45793;BME280;31495;42.740;22.908;2023-03-23T02:50:35;93070.31;;;2.87;83.14
45793;BME280;31495;42.740;22.908;2023-03-23T02:51:38;93040.06;;;2.67;83.19
45793;BME280;31495;42.740;22.908;2023-03-23T02:52:40;93079.91;;;2.85;83.63
45793;BME280;31495;42.740;22.908;2023-03-23T02:53:42;93069.56;;;2.78;83.88
45793;BME280;31495;42.740;22.908;2023-03-23T02:54:44;93050.59;;;2.72;83.77
45793;BME280;31495;42.740;22.908;2023-03-23T02:55:49;93069.84;;;2.83;83.77
45793;BME280;31495;42.740;22.908;2023-03-23T02:56:52;93080.53;;;2.95;83.70
45793;BME280;31495;42.740;22.908;2023-03-23T02:57:54;93055.66;;;2.81;83.61
45793;BME280;31495;42.740;22.908;2023-03-23T02:58:54;93091.41;;;2.97;83.49
45793;BME280;31495;42.740;22.908;2023-03-23T02:59:54;93063.00;;;2.84;83.31
45793;BME280;31495;42.740;22.908;2023-03-23T03:00:54;93057.94;;;2.75;83.31
45793;BME280;31495;42.740;22.908;2023-03-23T03:02:01;93064.75;;;2.83;83.23
45793;BME280;31495;42.740;22.908;2023-03-23T03:03:04;93097.94;;;3.00;83.38
45793;BME280;31495;42.740;22.908;2023-03-23T03:04:17;93097.94;;;3.00;83.42
45793;BME280;31495;42.740;22.908;2023-03-23T03:08:19;93073.69;;;2.87;82.93
45793;BME280;31495;42.740;22.908;2023-03-23T03:11:50;93112.00;;;2.96;82.84
45793;BME280;31495;42.740;22.908;2023-03-23T03:13:02;93106.72;;;2.97;82.90
45793;BME280;31495;42.740;22.908;2023-03-23T03:14:06;93090.66;;;2.64;83.42
45793;BME280;31495;42.740;22.908;2023-03-23T03:15:15;93085.22;;;2.67;83.59
45793;BME280;31495;42.740;22.908;2023-03-23T03:16:42;93107.91;;;2.70;84.00
45793;BME280;31495;42.740;22.908;2023-03-23T03:18:11;93049.38;;;2.19;84.81
45793;BME280;31495;42.740;22.908;2023-03-23T03:19:24;93077.47;;;2.35;85.47
45793;BME280;31495;42.740;22.908;2023-03-23T03:20:26;93061.66;;;2.24;84.71
45793;BME280;31495;42.740;22.908;2023-03-23T03:21:30;93114.13;;;2.59;84.92
45793;BME280;31495;42.740;22.908;2023-03-23T03:22:30;93086.72;;;2.36;85.18
45793;BME280;31495;42.740;22.908;2023-03-23T03:23:32;93110.31;;;2.47;85.31
45793;BME280;31495;42.740;22.908;2023-03-23T03:24:33;93100.13;;;2.38;85.54
45793;BME280;31495;42.740;22.908;2023-03-23T03:25:33;93094.69;;;2.33;85.81
45793;BME280;31495;42.740;22.908;2023-03-23T03:26:33;93049.41;;;2.02;86.31
45793;BME280;31495;42.740;22.908;2023-03-23T03:27:34;93090.84;;;2.29;86.26
45793;BME280;31495;42.740;22.908;2023-03-23T03:28:34;93097.88;;;2.35;86.41
45793;BME280;31495;42.740;22.908;2023-03-23T03:29:36;93080.03;;;2.19;86.80
45793;BME280;31495;42.740;22.908;2023-03-23T03:30:40;93098.19;;;2.32;86.86
45793;BME280;31495;42.740;22.908;2023-03-23T03:31:44;93112.56;;;2.50;86.73
45793;BME280;31495;42.740;22.908;2023-03-23T03:32:47;93105.22;;;2.55;86.68
45793;BME280;31495;42.740;22.908;2023-03-23T03:33:50;93102.03;;;2.53;86.61
45793;BME280;31495;42.740;22.908;2023-03-23T03:34:50;93107.28;;;2.60;86.48
45793;BME280;31495;42.740;22.908;2023-03-23T03:35:49;93065.81;;;2.33;86.73
45793;BME280;31495;42.740;22.908;2023-03-23T03:36:52;93108.38;;;2.57;86.81
45793;BME280;31495;42.740;22.908;2023-03-23T03:37:53;93085.09;;;2.44;87.03
45793;BME280;31495;42.740;22.908;2023-03-23T03:38:54;93080.78;;;2.44;86.92
45793;BME280;31495;42.740;22.908;2023-03-23T03:39:56;93098.31;;;2.64;86.36
45793;BME280;31495;42.740;22.908;2023-03-23T03:40:56;93121.59;;;2.77;86.03
45793;BME280;31495;42.740;22.908;2023-03-23T03:41:56;93094.19;;;2.63;86.03
45793;BME280;31495;42.740;22.908;2023-03-23T03:42:55;93100.72;;;2.65;86.34
45793;BME280;31495;42.740;22.908;2023-03-23T03:43:55;93047.75;;;2.34;86.05
45793;BME280;31495;42.740;22.908;2023-03-23T03:44:55;93112.38;;;2.76;86.07
45793;BME280;31495;42.740;22.908;2023-03-23T03:45:54;93110.75;;;2.75;85.93
45793;BME280;31495;42.740;22.908;2023-03-23T03:46:54;93075.81;;;2.51;85.88
45793;BME280;31495;42.740;22.908;2023-03-23T03:47:53;93097.38;;;2.65;85.69
45793;BME280;31495;42.740;22.908;2023-03-23T03:48:53;93128.63;;;2.83;85.42
45793;BME280;31495;42.740;22.908;2023-03-23T03:49:53;93109.97;;;2.74;85.23
45793;BME280;31495;42.740;22.908;2023-03-23T03:50:52;93090.47;;;2.73;85.47
45793;BME280;31495;42.740;22.908;2023-03-23T03:51:56;93106.44;;;2.84;85.83
45793;BME280;31495;42.740;22.908;2023-03-23T03:52:55;93117.59;;;2.91;85.45
45793;BME280;31495;42.740;22.908;2023-03-23T03:53:55;93096.56;;;2.72;85.72
45793;BME280;31495;42.740;22.908;2023-03-23T03:54:54;93113.31;;;2.83;85.66
45793;BME280;31495;42.740;22.908;2023-03-23T03:55:55;93088.25;;;2.62;85.76
45793;BME280;31495;42.740;22.908;2023-03-23T03:56:56;93105.19;;;2.71;86.16
45793;BME280;31495;42.740;22.908;2023-03-23T03:57:57;93075.50;;;2.54;86.27
45793;BME280;31495;42.740;22.908;2023-03-23T03:58:57;93103.56;;;2.70;85.99
45793;BME280;31495;42.740;22.908;2023-03-23T03:59:59;93125.59;;;2.88;85.66
45793;BME280;31495;42.740;22.908;2023-03-23T04:00:59;93127.03;;;2.90;85.49
45793;BME280;31495;42.740;22.908;2023-03-23T04:01:58;93093.88;;;2.66;85.48
45793;BME280;31495;42.740;22.908;2023-03-23T04:02:58;93084.28;;;2.60;85.50
45793;BME280;31495;42.740;22.908;2023-03-23T04:03:59;93105.19;;;2.71;85.42
45793;BME280;31495;42.740;22.908;2023-03-23T04:04:58;93099.94;;;2.65;85.40
45793;BME280;31495;42.740;22.908;2023-03-23T04:05:57;93110.13;;;2.73;85.30
45793;BME280;31495;42.740;22.908;2023-03-23T04:06:58;93126.69;;;2.85;85.37
45793;BME280;31495;42.740;22.908;2023-03-23T04:07:57;93100.69;;;2.73;85.33
45793;BME280;31495;42.740;22.908;2023-03-23T04:09:02;93087.63;;;2.60;85.33
45793;BME280;31495;42.740;22.908;2023-03-23T04:10:06;93116.84;;;2.82;85.90
45793;BME280;31495;42.740;22.908;2023-03-23T04:11:06;93139.81;;;2.99;85.99
45793;BME280;31495;42.740;22.908;2023-03-23T04:12:06;93125.13;;;2.84;86.09
45793;BME280;31495;42.740;22.908;2023-03-23T04:13:06;93077.41;;;2.60;85.95
45793;BME280;31495;42.740;22.908;2023-03-23T04:14:05;93118.56;;;2.90;86.02
45793;BME280;31495;42.740;22.908;2023-03-23T04:15:06;93144.41;;;3.03;85.73
45793;BME280;31495;42.740;22.908;2023-03-23T04:16:07;93134.81;;;3.05;85.56
45793;BME280;31495;42.740;22.908;2023-03-23T04:17:07;93131.81;;;3.02;84.36
45793;BME280;31495;42.740;22.908;2023-03-23T04:18:08;93130.38;;;2.99;84.67
45793;BME280;31495;42.740;22.908;2023-03-23T04:19:08;93098.13;;;2.82;84.93
45793;BME280;31495;42.740;22.908;2023-03-23T04:20:09;93106.94;;;2.79;84.89
45793;BME280;31495;42.740;22.908;2023-03-23T04:21:13;93131.78;;;2.93;85.06
45793;BME280;31495;42.740;22.908;2023-03-23T04:22:13;93111.59;;;2.75;85.02
45793;BME280;31495;42.740;22.908;2023-03-23T04:23:14;93095.59;;;2.65;84.78
45793;BME280;31495;42.740;22.908;2023-03-23T04:24:13;93109.97;;;2.74;85.09
45793;BME280;31495;42.740;22.908;2023-03-23T04:25:12;93124.66;;;2.89;85.14
45793;BME280;31495;42.740;22.908;2023-03-23T04:26:12;93087.63;;;2.60;85.26
45793;BME280;31495;42.740;22.908;2023-03-23T04:27:12;93111.91;;;2.72;85.52
45793;BME280;31495;42.740;22.908;2023-03-23T04:28:13;93109.81;;;2.76;85.39
45793;BME280;31495;42.740;22.908;2023-03-23T04:29:13;93100.88;;;2.72;85.14
45793;BME280;31495;42.740;22.908;2023-03-23T04:30:13;93136.13;;;2.93;85.39
45793;BME280;31495;42.740;22.908;2023-03-23T04:31:13;93138.50;;;2.94;85.46
45793;BME280;31495;42.740;22.908;2023-03-23T04:32:13;93090.34;;;2.67;85.21
45793;BME280;31495;42.740;22.908;2023-03-23T04:33:13;93124.94;;;2.94;85.28
45793;BME280;31495;42.740;22.908;2023-03-23T04:34:13;93100.38;;;2.76;85.39
45793;BME280;31495;42.740;22.908;2023-03-23T04:35:14;93129.41;;;3.00;84.87
45793;BME280;31495;42.740;22.908;2023-03-23T04:36:13;93088.22;;;2.79;83.68
45793;BME280;31495;42.740;22.908;2023-03-23T04:37:14;93127.81;;;2.99;83.89
45793;BME280;31495;42.740;22.908;2023-03-23T04:38:15;93034.53;;;2.31;84.13
45793;BME280;31495;42.740;22.908;2023-03-23T04:39:16;93048.25;;;2.38;84.02
45793;BME280;31495;42.740;22.908;2023-03-23T04:40:17;93122.41;;;2.86;84.22
45793;BME280;31495;42.740;22.908;2023-03-23T04:41:16;93103.25;;;2.82;83.71
45793;BME280;31495;42.740;22.908;2023-03-23T04:42:16;93107.56;;;2.81;83.53
45793;BME280;31495;42.740;22.908;2023-03-23T04:43:15;93121.78;;;2.84;83.91
45793;BME280;31495;42.740;22.908;2023-03-23T04:44:15;93108.53;;;2.72;84.02
45793;BME280;31495;42.740;22.908;2023-03-23T04:45:19;93136.28;;;2.91;83.39
45793;BME280;31495;42.740;22.908;2023-03-23T04:46:20;93117.94;;;2.80;82.32
45793;BME280;31495;42.740;22.908;2023-03-23T04:47:20;93102.94;;;2.68;82.76
45793;BME280;31495;42.740;22.908;2023-03-23T04:48:20;93123.22;;;2.78;83.04
45793;BME280;31495;42.740;22.908;2023-03-23T04:49:21;93119.25;;;2.75;82.56
45793;BME280;31495;42.740;22.908;2023-03-23T04:50:21;93130.41;;;2.83;82.62
45793;BME280;31495;42.740;22.908;2023-03-23T04:51:23;93122.75;;;2.74;82.68
45793;BME280;31495;42.740;22.908;2023-03-23T04:52:27;93094.84;;;2.56;82.46
45793;BME280;31495;42.740;22.908;2023-03-23T04:53:31;93117.31;;;2.69;82.32
45793;BME280;31495;42.740;22.908;2023-03-23T04:54:30;93130.09;;;2.69;82.38
45793;BME280;31495;42.740;22.908;2023-03-23T04:55:35;93100.75;;;2.49;82.34
45793;BME280;31495;42.740;22.908;2023-03-23T04:56:37;93089.59;;;2.42;82.38
45793;BME280;31495;42.740;22.908;2023-03-23T04:57:37;93143.19;;;2.74;82.39
45793;BME280;31495;42.740;22.908;2023-03-23T04:58:37;93121.16;;;2.57;82.23
45793;BME280;31495;42.740;22.908;2023-03-23T04:59:38;93127.72;;;2.68;82.14
45793;BME280;31495;42.740;22.908;2023-03-23T05:00:38;93120.06;;;2.51;82.22
45793;BME280;31495;42.740;22.908;2023-03-23T05:01:40;93125.81;;;2.53;82.10
45793;BME280;31495;42.740;22.908;2023-03-23T05:02:45;93120.06;;;2.51;82.14
45793;BME280;31495;42.740;22.908;2023-03-23T05:03:51;93152.47;;;2.67;82.45
45793;BME280;31495;42.740;22.908;2023-03-23T05:04:51;93157.91;;;2.64;82.26
45793;BME280;31495;42.740;22.908;2023-03-23T05:05:50;93087.19;;;2.24;81.62
45793;BME280;31495;42.740;22.908;2023-03-23T05:06:52;93139.34;;;2.54;81.55
45793;BME280;31495;42.740;22.908;2023-03-23T05:07:52;93134.75;;;2.49;82.04
45793;BME280;31495;42.740;22.908;2023-03-23T05:08:52;93148.16;;;2.60;82.38
45793;BME280;31495;42.740;22.908;2023-03-23T05:09:51;93151.81;;;2.57;82.20
45793;BME280;31495;42.740;22.908;2023-03-23T05:10:56;93126.91;;;2.43;82.28
45793;BME280;31495;42.740;22.908;2023-03-23T05:11:56;93076.69;;;2.18;81.91
45793;BME280;31495;42.740;22.908;2023-03-23T05:12:58;93144.47;;;2.62;81.93
45793;BME280;31495;42.740;22.908;2023-03-23T05:13:58;93126.59;;;2.46;82.16
45793;BME280;31495;42.740;22.908;2023-03-23T05:14:57;93143.53;;;2.55;81.99
45793;BME280;31495;42.740;22.908;2023-03-23T05:15:56;93141.28;;;2.52;81.86
45793;BME280;31495;42.740;22.908;2023-03-23T05:16:56;93138.25;;;2.56;82.10
45793;BME280;31495;42.740;22.908;2023-03-23T05:17:55;93136.50;;;2.49;82.05
45793;BME280;31495;42.740;22.908;2023-03-23T05:18:55;93156.91;;;2.65;82.04
45793;BME280;31495;42.740;22.908;2023-03-23T05:19:56;93150.22;;;2.64;82.11
45793;BME280;31495;42.740;22.908;2023-03-23T05:20:59;93158.22;;;2.69;81.88
45793;BME280;31495;42.740;22.908;2023-03-23T05:21:59;93140.81;;;2.56;82.12
45793;BME280;31495;42.740;22.908;2023-03-23T05:23:03;93144.00;;;2.58;82.27
45793;BME280;31495;42.740;22.908;2023-03-23T05:24:06;93145.59;;;2.60;82.19
45793;BME280;31495;42.740;22.908;2023-03-23T05:25:06;93099.34;;;2.30;82.10
45793;BME280;31495;42.740;22.908;2023-03-23T05:26:08;93143.38;;;2.56;82.04
45793;BME280;31495;42.740;22.908;2023-03-23T05:27:10;93149.91;;;2.67;82.40
45793;BME280;31495;42.740;22.908;2023-03-23T05:28:11;93158.03;;;2.71;82.03
45793;BME280;31495;42.740;22.908;2023-03-23T05:29:11;93143.50;;;2.63;82.34
45793;BME280;31495;42.740;22.908;2023-03-23T05:30:10;93146.22;;;2.62;82.43
45793;BME280;31495;42.740;22.908;2023-03-23T05:31:11;93142.72;;;2.63;83.04
45793;BME280;31495;42.740;22.908;2023-03-23T05:32:12;93147.84;;;2.71;82.99
45793;BME280;31495;42.740;22.908;2023-03-23T05:33:11;93144.47;;;2.70;82.70
45793;BME280;31495;42.740;22.908;2023-03-23T05:34:11;93136.47;;;2.65;82.84
45793;BME280;31495;42.740;22.908;2023-03-23T05:35:11;93158.50;;;2.83;83.05
45793;BME280;31495;42.740;22.908;2023-03-23T05:36:11;93135.69;;;2.65;83.06
45793;BME280;31495;42.740;22.908;2023-03-23T05:37:12;93146.53;;;2.75;83.26
45793;BME280;31495;42.740;22.908;2023-03-23T05:38:13;93139.03;;;2.73;83.21
45793;BME280;31495;42.740;22.908;2023-03-23T05:39:13;93153.53;;;2.89;83.34
45793;BME280;31495;42.740;22.908;2023-03-23T05:40:14;93166.31;;;2.98;83.33
45793;BME280;31495;42.740;22.908;2023-03-23T05:41:16;93102.50;;;2.56;83.01
45793;BME280;31495;42.740;22.908;2023-03-23T05:42:15;93160.09;;;3.00;83.08
45793;BME280;31495;42.740;22.908;2023-03-23T05:43:15;93143.81;;;2.85;83.16
45793;BME280;31495;42.740;22.908;2023-03-23T05:44:15;93152.44;;;2.92;83.16
45793;BME280;31495;42.740;22.908;2023-03-23T05:45:14;93143.16;;;2.91;83.58